Time;durP1;ratioP1;P1;durP2;ratioP2;P2;SDS_P1;SDS_P2;PMS_P1;PMS_P2;Temp;Humidity;BMP_temperature;BMP_pressure;BME280_temperature;BME280_humidity;BME280_pressure;Samples;Min_cycle;Max_cycle;Signal;HPM_P1;HPM_P2
2022/09/04 00:01:06;;;;;;;27.70;11.50;;;;;;;8.00;72.88;101158.08;84788;1323;25471;-79
2022/09/04 00:03:25;;;;;;;29.90;12.80;;;;;;;7.98;72.87;101160.02;84802;1325;24153;-75
2022/09/04 00:05:36;;;;;;;29.40;13.60;;;;;;;7.97;72.65;101160.55;84819;1318;22827;-75
2022/09/04 00:08:05;;;;;;;25.20;11.00;;;;;;;7.94;72.93;101159.02;84813;1326;22664;-75
2022/09/04 00:10:18;;;;;;;26.40;11.60;;;;;;;7.87;72.68;101156.00;84807;1323;22549;-74
2022/09/04 00:12:31;;;;;;;20.80;10.40;;;;;;;7.82;73.28;101160.25;84785;1325;22612;-72
2022/09/04 00:14:45;;;;;;;24.30;11.00;;;;;;;7.79;73.43;101166.38;84705;1325;25494;-76
2022/09/04 00:17:01;;;;;;;21.10;10.70;;;;;;;7.75;73.30;101169.20;84819;1325;22585;-75
2022/09/04 00:19:14;;;;;;;20.10;10.90;;;;;;;7.73;73.31;101166.64;84825;1327;22600;-79
2022/09/04 00:21:28;;;;;;;21.60;10.10;;;;;;;7.72;73.52;101168.37;84881;1326;22619;-75
2022/09/04 00:23:41;;;;;;;20.60;11.10;;;;;;;7.71;73.60;101168.56;84764;1327;22621;-76
2022/09/04 00:25:57;;;;;;;17.10;9.20;;;;;;;7.70;73.63;101164.23;84745;1328;25415;-75
2022/09/04 00:28:09;;;;;;;18.30;9.30;;;;;;;7.68;73.83;101165.98;84837;1327;22599;-75
2022/09/04 00:30:21;;;;;;;21.80;10.10;;;;;;;7.66;74.03;101168.27;84846;1327;22600;-75
2022/09/04 00:32:38;;;;;;;14.90;9.50;;;;;;;7.64;73.95;101169.00;84774;1330;22736;-75
2022/09/04 00:35:01;;;;;;;15.00;9.90;;;;;;;7.63;74.07;101170.40;84772;1327;22680;-74
2022/09/04 00:37:12;;;;;;;19.70;10.00;;;;;;;7.62;73.99;101167.63;84798;1326;25263;-75
2022/09/04 00:39:21;;;;;;;;;;;;;;;7.63;73.93;101171.27;84797;1325;22565;-75
2022/09/04 00:41:34;;;;;;;14.60;9.10;;;;;;;7.59;74.38;101176.01;84798;1326;22728;-76
2022/09/04 00:44:12;;;;;;;19.90;10.20;;;;;;;7.58;74.17;101176.70;84670;1328;23934;-76
2022/09/04 00:46:46;;;;;;;16.90;9.60;;;;;;;7.56;74.25;101180.73;84761;1328;22606;-76
2022/09/04 00:49:35;;;;;;;19.00;9.70;;;;;;;7.53;74.26;101178.35;84700;1327;24205;-74
2022/09/04 00:51:50;;;;;;;16.20;9.30;;;;;;;7.49;74.14;101178.05;84649;1325;22604;-78
2022/09/04 00:54:34;;;;;;;19.30;10.40;;;;;;;7.46;74.39;101176.88;84680;1321;22646;-77
2022/09/04 00:57:04;;;;;;;14.80;9.30;;;;;;;7.40;74.57;101182.67;84784;1318;22681;-77
2022/09/04 00:59:21;;;;;;;16.40;9.30;;;;;;;7.37;74.69;101188.25;84668;1323;23163;-77
2022/09/04 01:01:30;;;;;;;15.60;9.20;;;;;;;7.37;74.76;101190.35;84767;1327;22646;-77
2022/09/04 01:04:01;;;;;;;20.60;10.60;;;;;;;7.38;74.51;101187.38;84703;1327;22654;-79
2022/09/04 01:06:21;;;;;;;17.20;10.00;;;;;;;7.39;74.83;101188.58;84811;1326;22624;-75
2022/09/04 01:08:39;;;;;;;;;;;;;;;7.36;74.87;101193.48;84851;1325;24309;-75
2022/09/04 01:11:00;;;;;;;18.90;10.00;;;;;;;7.30;74.96;101191.64;84739;1327;23029;-74
2022/09/04 01:13:15;;;;;;;15.50;9.40;;;;;;;7.29;74.95;101194.77;84762;1326;22573;-76
2022/09/04 01:15:28;;;;;;;15.30;10.20;;;;;;;7.29;75.09;101193.73;84837;1330;24260;-75
2022/09/04 01:17:41;;;;;;;15.10;9.10;;;;;;;7.28;75.13;101193.40;84816;1326;22819;-74
2022/09/04 01:19:58;;;;;;;16.40;9.80;;;;;;;7.25;75.22;101191.70;84872;1327;22590;-75
2022/09/04 01:22:21;;;;;;;22.70;11.00;;;;;;;7.22;75.31;101193.11;84749;1327;22579;-76
2022/09/04 01:24:53;;;;;;;18.30;10.30;;;;;;;7.18;75.19;101196.45;84812;1327;22586;-76
2022/09/04 01:27:07;;;;;;;18.80;9.30;;;;;;;7.17;75.19;101196.97;84717;1326;22716;-73
2022/09/04 01:29:27;;;;;;;22.40;10.60;;;;;;;7.17;75.33;101202.72;84817;1323;22835;-74
2022/09/04 01:31:55;;;;;;;20.10;10.00;;;;;;;7.16;75.56;101202.91;84785;1326;22614;-76
2022/09/04 01:34:16;;;;;;;17.70;10.50;;;;;;;7.15;75.39;101203.61;84782;1322;22616;-76
2022/09/04 01:36:31;;;;;;;21.50;10.40;;;;;;;7.13;75.56;101204.66;84757;1321;22652;-79
2022/09/04 01:38:43;;;;;;;22.80;10.40;;;;;;;7.12;75.21;101205.02;84724;1324;22573;-74
2022/09/04 01:40:58;;;;;;;20.60;11.80;;;;;;;7.12;75.37;101207.46;84737;1326;22591;-73
2022/09/04 01:43:16;;;;;;;21.70;10.70;;;;;;;7.09;75.26;101207.13;84704;1325;22584;-76
2022/09/04 01:45:33;;;;;;;16.70;10.60;;;;;;;7.04;75.74;101208.23;84783;1322;22843;-75
2022/09/04 01:47:46;;;;;;;27.70;10.30;;;;;;;6.99;75.83;101212.44;84656;1328;22622;-73
2022/09/04 01:49:59;;;;;;;25.60;10.80;;;;;;;6.97;75.78;101211.58;84779;1326;22605;-78
2022/09/04 01:52:21;;;;;;;19.00;9.80;;;;;;;6.97;76.08;101210.55;84760;1325;22994;-74
2022/09/04 01:54:41;;;;;;;24.80;11.10;;;;;;;6.97;76.31;101209.85;84786;1326;22801;-78
2022/09/04 01:56:56;;;;;;;24.90;10.00;;;;;;;6.98;76.15;101209.67;84828;1322;22794;-77
2022/09/04 01:59:09;;;;;;;27.30;10.40;;;;;;;6.96;76.10;101208.13;84724;1327;23853;-74
2022/09/04 02:01:22;;;;;;;19.00;10.50;;;;;;;6.94;76.46;101208.32;84714;1327;22576;-75
2022/09/04 02:03:38;;;;;;;16.60;9.10;;;;;;;6.94;76.26;101210.40;84825;1326;22584;-77
2022/09/04 02:06:00;;;;;;;22.70;12.00;;;;;;;6.95;76.10;101207.10;84826;1326;22591;-76
2022/09/04 02:08:22;;;;;;;20.00;11.00;;;;;;;6.93;76.28;101207.29;84836;1320;22633;-75
2022/09/04 02:10:37;;;;;;;24.00;11.10;;;;;;;6.92;76.25;101206.95;84730;1330;22624;-76
2022/09/04 02:12:57;;;;;;;23.90;11.40;;;;;;;6.93;76.32;101204.17;84778;1327;22711;-76
2022/09/04 02:15:11;;;;;;;26.60;12.50;;;;;;;6.90;76.01;101201.42;84819;1326;22596;-73
2022/09/04 02:17:25;;;;;;;30.20;11.80;;;;;;;6.89;76.37;101202.13;84700;1326;22611;-76
2022/09/04 02:19:54;;;;;;;23.90;11.70;;;;;;;6.87;76.22;101204.23;84756;1326;22603;-80
2022/09/04 02:22:11;;;;;;;24.60;12.00;;;;;;;6.84;76.21;101204.78;84785;1324;22611;-74
2022/09/04 02:24:24;;;;;;;23.70;11.90;;;;;;;6.82;76.58;101206.54;84761;1326;22606;-78
2022/09/04 02:26:36;;;;;;;25.10;11.70;;;;;;;6.80;76.39;101203.26;84772;1326;22675;-77
2022/09/04 02:28:54;;;;;;;22.30;11.30;;;;;;;6.79;76.68;101200.83;84812;1327;22587;-76
2022/09/04 02:31:08;;;;;;;25.60;12.90;;;;;;;6.79;76.09;101205.52;84686;1327;22597;-76
2022/09/04 02:33:23;;;;;;;25.10;12.90;;;;;;;6.78;76.64;101202.39;84639;1329;22611;-75
2022/09/04 02:35:39;;;;;;;26.80;11.30;;;;;;;6.76;76.58;101202.08;84733;1327;22618;-76
2022/09/04 02:37:58;;;;;;;29.40;11.40;;;;;;;6.72;76.53;101198.98;84755;1328;22612;-78
2022/09/04 02:40:13;;;;;;;27.10;11.80;;;;;;;6.67;76.58;101202.15;84766;1326;22560;-73
2022/09/04 02:42:26;;;;;;;27.10;11.10;;;;;;;6.64;76.53;101201.66;84750;1326;22671;-75
2022/09/04 02:44:45;;;;;;;25.20;11.10;;;;;;;6.63;77.04;101201.83;84816;1326;22587;-75
2022/09/04 02:47:01;;;;;;;23.50;11.50;;;;;;;6.65;76.73;101200.45;84739;1319;22845;-75
2022/09/04 02:49:15;;;;;;;28.40;13.00;;;;;;;6.63;76.94;101200.80;84829;1326;25648;-75
2022/09/04 02:51:31;;;;;;;21.00;11.50;;;;;;;6.63;76.97;101202.20;84770;1326;22590;-74
2022/09/04 02:53:44;;;;;;;20.40;11.10;;;;;;;6.62;77.05;101201.85;84782;1327;22584;-76
2022/09/04 02:56:13;;;;;;;24.50;10.50;;;;;;;6.60;77.12;101201.87;84735;1329;25593;-78
2022/09/04 02:58:31;;;;;;;16.80;9.20;;;;;;;6.58;77.30;101203.27;84837;1326;22578;-76
2022/09/04 03:00:46;;;;;;;19.80;9.40;;;;;;;6.57;77.50;101199.99;84829;1326;22642;-78
2022/09/04 03:02:58;;;;;;;19.60;9.70;;;;;;;6.57;77.63;101201.20;84818;1326;22586;-78
2022/09/04 03:05:12;;;;;;;15.90;9.00;;;;;;;6.58;77.68;101203.27;84745;1327;22576;-77
2022/09/04 03:07:28;;;;;;;21.30;10.80;;;;;;;6.55;77.85;101200.87;84774;1326;22584;-75
2022/09/04 03:09:42;;;;;;;19.50;10.00;;;;;;;6.53;77.74;101203.14;84803;1326;24235;-75
2022/09/04 03:11:55;;;;;;;25.80;10.70;;;;;;;6.50;77.63;101204.02;84751;1326;23011;-77
2022/09/04 03:14:11;;;;;;;23.70;11.00;;;;;;;6.51;77.54;101208.02;84718;1327;22591;-76
2022/09/04 03:16:24;;;;;;;20.20;10.80;;;;;;;6.50;77.77;101202.98;84761;1325;22600;-76
2022/09/04 03:18:36;;;;;;;18.40;9.90;;;;;;;6.46;77.66;101203.72;84729;1326;25041;-75
2022/09/04 03:20:48;;;;;;;25.10;10.20;;;;;;;6.43;78.02;101205.81;84755;1326;22584;-77
2022/09/04 03:23:04;;;;;;;16.60;8.80;;;;;;;6.40;78.00;101201.86;84715;1327;25447;-80
2022/09/04 03:25:42;;;;;;;17.60;9.80;;;;;;;6.38;78.33;101205.52;84823;1322;23144;-75
2022/09/04 03:27:52;;;;;;;15.20;9.00;;;;;;;6.36;78.43;101209.34;84774;1326;22624;-76
2022/09/04 03:30:06;;;;;;;14.50;8.90;;;;;;;6.36;78.60;101206.58;84795;1326;22583;-73
2022/09/04 03:32:24;;;;;;;12.80;8.50;;;;;;;6.37;78.73;101212.45;84752;1326;22614;-72
2022/09/04 03:34:43;;;;;;;10.30;7.80;;;;;;;6.38;78.77;101214.88;84809;1327;23997;-74
2022/09/04 03:37:23;;;;;;;12.00;7.70;;;;;;;6.39;78.86;101211.91;84800;1327;22573;-72
2022/09/04 03:39:37;;;;;;;12.70;7.90;;;;;;;6.39;79.11;101212.42;84733;1325;22722;-72
2022/09/04 03:41:54;;;;;;;12.50;7.40;;;;;;;6.38;78.94;101218.50;84838;1326;22617;-74
2022/09/04 03:44:12;;;;;;;16.20;7.40;;;;;;;6.36;79.20;101220.43;84798;1324;22734;-77
2022/09/04 03:46:32;;;;;;;11.70;7.60;;;;;;;6.35;79.06;101223.73;84791;1322;24221;-77
2022/09/04 03:48:56;;;;;;;19.00;8.70;;;;;;;6.34;79.28;101222.70;84804;1326;25324;-77
2022/09/04 03:51:09;;;;;;;13.40;8.80;;;;;;;6.32;79.07;101222.53;84645;1330;22584;-74
2022/09/04 03:53:26;;;;;;;10.90;7.60;;;;;;;6.30;78.97;101219.95;84717;1328;22588;-74
2022/09/04 03:56:25;;;;;;;12.70;7.90;;;;;;;6.30;79.28;101221.52;84786;1326;22597;-77
2022/09/04 03:58:40;;;;;;;11.90;7.50;;;;;;;6.25;79.36;101220.33;84796;1326;23093;-76
2022/09/04 04:00:55;;;;;;;14.60;8.10;;;;;;;6.23;79.37;101225.20;84644;1329;22660;-73
2022/09/04 04:03:16;;;;;;;10.80;7.90;;;;;;;6.22;79.49;101226.25;84759;1326;24216;-74
2022/09/04 04:05:29;;;;;;;16.10;8.70;;;;;;;6.23;79.59;101224.50;84751;1325;22597;-76
2022/09/04 04:07:45;;;;;;;17.40;8.50;;;;;;;6.26;79.43;101226.05;84789;1326;22883;-76
2022/09/04 04:10:07;;;;;;;18.90;8.00;;;;;;;6.27;79.64;101230.89;84652;1328;22699;-75
2022/09/04 04:12:38;;;;;;;14.70;8.00;;;;;;;6.29;79.65;101228.96;84777;1328;23975;-76
2022/09/04 04:15:13;;;;;;;12.80;9.00;;;;;;;6.31;79.77;101236.41;84773;1322;22691;-75
2022/09/04 04:17:46;;;;;;;17.80;9.00;;;;;;;6.35;79.85;101237.06;84733;1327;22578;-75
2022/09/04 04:20:10;;;;;;;15.80;9.10;;;;;;;6.38;80.02;101240.34;84784;1325;22668;-72
2022/09/04 04:22:34;;;;;;;19.80;8.60;;;;;;;6.38;79.68;101244.67;84736;1327;23962;-74
2022/09/04 04:25:13;;;;;;;17.70;9.70;;;;;;;6.37;79.86;101242.43;84784;1327;22705;-76
2022/09/04 04:27:34;;;;;;;16.20;10.00;;;;;;;6.39;79.83;101242.23;84713;1324;25369;-75
2022/09/04 04:30:04;;;;;;;15.90;8.60;;;;;;;6.42;79.93;101245.00;84803;1327;22609;-76
2022/09/04 04:32:31;;;;;;;14.40;8.80;;;;;;;6.48;79.90;101247.73;84840;1326;23938;-75
2022/09/04 04:34:50;;;;;;;14.80;8.40;;;;;;;6.49;80.12;101256.38;84830;1326;22587;-74
2022/09/04 04:37:02;;;;;;;17.60;9.20;;;;;;;6.53;80.11;101258.27;84621;1331;22653;-74
2022/09/04 04:39:23;;;;;;;13.40;8.50;;;;;;;6.65;80.38;101258.52;84709;1330;22659;-72
2022/09/04 04:44:13;;;;;;;14.30;8.10;;;;;;;6.94;80.75;101253.77;84684;1328;24215;-74
2022/09/04 04:46:28;;;;;;;14.60;8.50;;;;;;;6.99;80.72;101253.55;84733;1325;24360;-73
2022/09/04 04:49:12;;;;;;;12.80;8.30;;;;;;;7.05;80.69;101255.93;84671;1330;22590;-75
2022/09/04 04:51:39;;;;;;;10.60;7.00;;;;;;;7.11;80.90;101264.05;84646;1329;22592;-73
2022/09/04 04:53:51;;;;;;;14.20;8.60;;;;;;;7.17;81.41;101265.86;84674;1325;24308;-74
2022/09/04 04:56:03;;;;;;;13.60;8.80;;;;;;;7.25;81.30;101265.45;84653;1329;25305;-73
2022/09/04 04:58:36;;;;;;;14.10;8.20;;;;;;;7.35;81.48;101266.92;84673;1321;22691;-75
2022/09/04 05:00:47;;;;;;;9.90;7.10;;;;;;;7.46;81.88;101270.61;84682;1324;22686;-74
2022/09/04 05:03:04;;;;;;;8.40;7.20;;;;;;;7.57;81.96;101272.76;84653;1330;22605;-76
2022/09/04 05:05:17;;;;;;;10.00;7.50;;;;;;;7.68;82.03;101270.89;84681;1328;24222;-76
2022/09/04 05:07:34;;;;;;;9.40;6.40;;;;;;;7.80;81.96;101272.31;84687;1329;22649;-75
2022/09/04 05:09:48;;;;;;;11.50;7.60;;;;;;;7.93;82.28;101272.32;84690;1328;25444;-74
2022/09/04 05:12:02;;;;;;;10.60;6.80;;;;;;;8.04;82.14;101269.22;84633;1329;22618;-74
2022/09/04 05:14:23;;;;;;;11.80;7.50;;;;;;;8.18;82.19;101277.73;84644;1329;22645;-74
2022/09/04 05:16:46;;;;;;;14.30;11.00;;;;;;;8.32;82.31;101273.20;84663;1324;22820;-73
2022/09/04 05:18:58;;;;;;;16.40;10.70;;;;;;;8.46;82.33;101273.71;84680;1329;22600;-75
2022/09/04 05:21:13;;;;;;;14.40;10.90;;;;;;;8.59;82.34;101275.26;84700;1324;22590;-76
2022/09/04 05:23:29;;;;;;;21.60;12.70;;;;;;;8.79;82.40;101277.38;84737;1324;22580;-73
2022/09/04 05:25:43;;;;;;;20.40;13.10;;;;;;;9.22;83.67;101274.71;84770;1328;23921;-75
2022/09/04 05:28:05;;;;;;;17.20;12.40;;;;;;;10.34;86.81;101268.96;84715;1330;24296;-75
2022/09/04 05:30:17;;;;;;;14.00;10.20;;;;;;;11.95;85.95;101267.94;84695;1328;24248;-74
2022/09/04 05:32:29;;;;;;;16.70;10.90;;;;;;;13.37;81.62;101266.52;84617;1333;25477;-72
2022/09/04 05:34:57;;;;;;;18.00;10.90;;;;;;;14.70;77.15;101262.07;84692;1329;22603;-75
2022/09/04 05:37:12;;;;;;;15.70;10.70;;;;;;;16.01;71.21;101263.23;84823;1327;22589;-74
2022/09/04 05:39:29;;;;;;;14.40;10.30;;;;;;;17.13;66.59;101261.13;84820;1327;23189;-74
2022/09/04 05:41:50;;;;;;;12.60;9.40;;;;;;;18.10;63.22;101260.24;84760;1327;23985;-75
2022/09/04 05:44:11;;;;;;;12.50;9.50;;;;;;;18.97;59.09;101258.68;84770;1327;22822;-74
2022/09/04 05:46:27;;;;;;;12.00;8.40;;;;;;;19.74;56.29;101264.27;84753;1326;22606;-75
2022/09/04 05:48:41;;;;;;;15.00;9.50;;;;;;;20.32;55.32;101266.67;84695;1327;22635;-74
2022/09/04 05:51:12;;;;;;;12.90;9.80;;;;;;;20.70;53.56;101264.52;84753;1327;24411;-75
2022/09/04 05:53:53;;;;;;;12.90;9.40;;;;;;;20.47;52.24;101266.72;84685;1330;22610;-73
2022/09/04 05:56:34;;;;;;;18.50;8.30;;;;;;;19.98;52.53;101274.48;84625;1326;24247;-75
2022/09/04 05:58:58;;;;;;;9.00;7.90;;;;;;;20.21;52.88;101269.46;84777;1326;23943;-74
2022/09/04 06:01:15;;;;;;;11.80;7.90;;;;;;;20.91;51.71;101270.05;84766;1326;24385;-74
2022/09/04 06:03:40;;;;;;;16.30;8.20;;;;;;;21.77;50.71;101273.22;84771;1326;22570;-73
2022/09/04 06:06:08;;;;;;;12.20;7.70;;;;;;;22.82;48.93;101267.35;84780;1327;22590;-73
2022/09/04 06:08:32;;;;;;;11.00;7.30;;;;;;;23.84;46.02;101272.54;84741;1326;22641;-74
2022/09/04 06:10:52;;;;;;;8.00;6.90;;;;;;;24.63;44.54;101277.00;84773;1326;22598;-74
2022/09/04 06:13:23;;;;;;;8.00;6.80;;;;;;;25.38;42.67;101273.66;84788;1326;22724;-74
2022/09/04 06:15:43;;;;;;;9.40;6.30;;;;;;;26.02;40.69;101273.32;84744;1327;25447;-75
2022/09/04 06:18:16;;;;;;;;;;;;;;;26.38;40.29;101279.19;84820;1327;22937;-72
2022/09/04 06:20:54;;;;;;;7.20;6.30;;;;;;;26.57;39.14;101277.52;84758;1326;22651;-74
2022/09/04 06:24:07;;;;;;;7.80;6.40;;;;;;;26.80;38.40;101276.10;84674;1329;22640;-74
2022/09/04 06:26:43;;;;;;;9.10;6.60;;;;;;;26.57;37.52;101280.20;84516;1333;23943;-76
2022/09/04 06:29:07;;;;;;;10.10;6.40;;;;;;;25.96;37.77;101280.96;84651;1324;22732;-76
2022/09/04 06:31:48;;;;;;;10.10;6.10;;;;;;;25.27;38.71;101283.05;84766;1327;22682;-74
2022/09/04 06:34:03;;;;;;;6.40;5.50;;;;;;;24.67;39.48;101288.10;84759;1326;25993;-75
2022/09/04 06:36:45;;;;;;;7.90;5.00;;;;;;;24.20;40.17;101293.30;84683;1327;22603;-75
2022/09/04 06:39:08;;;;;;;7.90;5.50;;;;;;;23.73;40.80;101295.48;84786;1326;22602;-72
2022/09/04 06:41:34;;;;;;;6.10;5.30;;;;;;;23.32;41.78;101295.58;84723;1327;24185;-71
2022/09/04 06:43:47;;;;;;;11.40;5.70;;;;;;;22.89;42.82;101294.98;84725;1327;22622;-76
2022/09/04 06:46:05;;;;;;;9.50;5.40;;;;;;;22.50;43.84;101304.36;84715;1331;24254;-75
2022/09/04 06:48:24;;;;;;;6.90;5.10;;;;;;;22.13;44.40;101305.11;84642;1330;25524;-75
2022/09/04 06:50:38;;;;;;;5.70;4.90;;;;;;;21.80;44.76;101302.30;84387;1323;548774;-74
2022/09/04 06:52:58;;;;;;;6.40;5.20;;;;;;;21.54;45.44;101303.05;84735;1327;23205;-73
2022/09/04 06:55:12;;;;;;;7.20;5.70;;;;;;;21.29;45.97;101301.58;84764;1327;22591;-75
2022/09/04 06:58:02;;;;;;;6.30;5.00;;;;;;;21.05;46.24;101301.56;84827;1330;22641;-75
2022/09/04 07:00:12;;;;;;;9.60;4.90;;;;;;;20.89;47.31;101308.31;84577;1333;24248;-74
2022/09/04 07:02:48;;;;;;;5.60;4.40;;;;;;;20.87;47.37;101306.67;84721;1325;22618;-74
2022/09/04 07:05:08;;;;;;;6.20;5.20;;;;;;;20.85;47.41;101309.11;84805;1327;22573;-75
2022/09/04 07:07:32;;;;;;;6.50;4.90;;;;;;;20.96;47.67;101310.30;84786;1327;22661;-74
2022/09/04 07:09:49;;;;;;;7.00;4.90;;;;;;;21.06;47.40;101306.98;84781;1327;22581;-73
2022/09/04 07:12:36;;;;;;;5.10;4.70;;;;;;;21.19;47.99;101310.77;84783;1321;22600;-73
2022/09/04 07:15:40;;;;;;;7.30;5.00;;;;;;;21.50;47.89;101308.11;84795;1325;23917;-72
2022/09/04 07:18:00;;;;;;;7.70;4.90;;;;;;;21.77;47.11;101309.58;84765;1318;23154;-74
2022/09/04 07:20:19;;;;;;;10.20;5.80;;;;;;;21.96;46.95;101311.82;84849;1322;24197;-76
2022/09/04 07:23:12;;;;;;;6.60;4.90;;;;;;;22.17;46.83;101311.08;84835;1327;22605;-74
2022/09/04 07:25:25;;;;;;;7.90;5.50;;;;;;;22.32;46.18;101311.73;84611;1328;22580;-73
2022/09/04 07:27:42;;;;;;;5.40;4.90;;;;;;;22.27;45.46;101314.83;84812;1326;25349;-74
2022/09/04 07:29:54;;;;;;;8.80;5.30;;;;;;;22.11;45.61;101318.44;84790;1327;26541;-76
2022/09/04 07:32:08;;;;;;;6.10;5.40;;;;;;;21.95;45.24;101313.30;84817;1321;22644;-74
2022/09/04 07:34:19;;;;;;;8.30;5.50;;;;;;;21.88;45.86;101312.73;84790;1328;22817;-74
2022/09/04 07:36:34;;;;;;;8.30;5.10;;;;;;;21.89;45.75;101311.45;84802;1322;22584;-74
2022/09/04 07:38:49;;;;;;;7.70;4.40;;;;;;;21.87;45.80;101313.70;84839;1326;22657;-75
2022/09/04 07:41:02;;;;;;;5.10;4.60;;;;;;;21.91;46.18;101317.33;84684;1326;22602;-73
2022/09/04 07:43:16;;;;;;;4.20;3.30;;;;;;;22.20;45.98;101317.25;84752;1326;22564;-75
2022/09/04 07:45:47;;;;;;;5.60;4.10;;;;;;;22.67;45.14;101317.58;84794;1327;24250;-74
2022/09/04 07:48:11;;;;;;;4.40;3.60;;;;;;;23.34;43.79;101314.66;84811;1325;25431;-74
2022/09/04 07:50:24;;;;;;;3.70;3.40;;;;;;;24.04;42.87;101314.20;84799;1325;25304;-74
2022/09/04 07:53:01;;;;;;;3.90;3.30;;;;;;;24.70;41.80;101316.38;84841;1326;22606;-73
2022/09/04 07:55:39;;;;;;;4.30;3.20;;;;;;;25.52;41.20;101310.17;84802;1325;25450;-74
2022/09/04 07:58:23;;;;;;;3.70;3.40;;;;;;;26.46;39.49;101311.06;84801;1326;25269;-75
2022/09/04 08:00:33;;;;;;;4.70;2.70;;;;;;;27.42;38.45;101308.86;84844;1325;22854;-75
2022/09/04 08:03:10;;;;;;;3.20;2.90;;;;;;;28.23;36.93;101313.03;84831;1326;24242;-72
2022/09/04 08:05:28;;;;;;;4.10;2.80;;;;;;;29.03;34.40;101316.97;84698;1328;22592;-72
2022/09/04 08:08:09;;;;;;;3.00;2.60;;;;;;;29.39;33.74;101317.14;84797;1325;23170;-71
2022/09/04 08:10:26;;;;;;;3.10;2.80;;;;;;;29.97;32.68;101317.75;84776;1326;22569;-70
2022/09/04 08:12:59;;;;;;;3.40;2.50;;;;;;;30.32;31.73;101316.70;84806;1326;22602;-69
2022/09/04 08:15:18;;;;;;;4.40;2.80;;;;;;;30.67;31.62;101315.61;84822;1327;22596;-69
2022/09/04 08:18:26;;;;;;;3.70;2.90;;;;;;;31.15;30.98;101313.23;84825;1318;22598;-71
2022/09/04 08:20:44;;;;;;;2.70;2.30;;;;;;;31.45;29.83;101312.31;84775;1325;23972;-72
2022/09/04 08:23:04;;;;;;;4.40;2.90;;;;;;;31.74;29.12;101313.59;84784;1326;22662;-72
2022/09/04 08:25:26;;;;;;;6.20;3.80;;;;;;;32.03;28.63;101317.02;84771;1327;22719;-70
2022/09/04 08:27:51;;;;;;;3.80;3.10;;;;;;;32.38;28.27;101320.17;84781;1326;24239;-70
2022/09/04 08:30:07;;;;;;;2.90;2.70;;;;;;;32.78;28.17;101328.97;84781;1327;22826;-72
2022/09/04 08:32:32;;;;;;;4.00;3.60;;;;;;;33.21;27.10;101323.44;84777;1326;22584;-71
2022/09/04 08:35:08;;;;;;;5.30;3.70;;;;;;;33.44;25.73;101330.23;84754;1326;22580;-71
2022/09/04 08:37:24;;;;;;;4.10;3.40;;;;;;;33.41;25.24;101326.58;84789;1322;24343;-72
2022/09/04 08:39:37;;;;;;;5.20;3.30;;;;;;;33.21;25.69;101329.00;84785;1326;26541;-69
2022/09/04 08:42:25;;;;;;;3.50;3.20;;;;;;;33.30;25.83;101331.06;84740;1327;22594;-70
2022/09/04 08:45:12;;;;;;;3.80;2.90;;;;;;;33.35;25.41;101329.14;84772;1325;24414;-73
2022/09/04 08:48:03;;;;;;;4.00;3.10;;;;;;;33.58;25.23;101327.95;84817;1326;22580;-72
2022/09/04 08:50:55;;;;;;;4.60;3.10;;;;;;;33.67;24.71;101322.80;84787;1326;22580;-73
2022/09/04 08:53:38;;;;;;;3.40;3.10;;;;;;;33.65;24.16;101320.41;84822;1328;22601;-72
2022/09/04 08:55:59;;;;;;;3.50;2.90;;;;;;;33.80;23.78;101325.30;84794;1324;22596;-73
2022/09/04 08:59:11;;;;;;;4.20;2.90;;;;;;;33.75;22.96;101320.71;84764;1325;22930;-75
2022/09/04 09:02:02;;;;;;;4.50;2.90;;;;;;;33.65;23.14;101320.41;84835;1322;25468;-73
2022/09/04 09:05:02;;;;;;;3.50;3.20;;;;;;;33.73;23.58;101323.44;84801;1327;26070;-73
2022/09/04 09:08:28;;;;;;;5.00;3.30;;;;;;;33.60;23.68;101329.36;84693;1322;22575;-72
2022/09/04 09:12:34;;;;;;;5.20;3.00;;;;;;;33.30;23.15;101324.50;84562;1330;24274;-71
2022/09/04 09:16:25;;;;;;;7.90;3.20;;;;;;;32.86;23.80;101325.86;84671;1325;24514;-70
2022/09/04 09:24:07;;;;;;;3.40;3.10;;;;;;;32.94;24.30;101323.77;84671;1327;22615;-73
2022/09/04 09:30:32;;;;;;;8.90;3.50;;;;;;;33.44;23.51;101320.79;81937;1370;545222;-76
2022/09/04 09:38:08;;;;;;;4.00;3.60;;;;;;;33.00;23.94;101317.24;84403;1336;22601;-74
2022/09/04 09:41:36;;;;;;;4.10;3.80;;;;;;;32.48;22.30;101320.17;84493;1332;22610;-72
2022/09/04 09:45:09;;;;;;;;;;;;;;;;;;;;;
2022/09/04 09:49:06;;;;;;;5.50;4.10;;;;;;;30.31;25.47;101318.48;84585;1330;23045;-74
2022/09/04 09:52:26;;;;;;;7.10;3.80;;;;;;;29.60;25.08;101319.39;84298;1337;22587;-73
2022/09/04 09:56:02;;;;;;;5.60;5.10;;;;;;;28.91;25.48;101324.88;84680;1331;22703;-73
2022/09/04 09:59:47;;;;;;;5.50;4.60;;;;;;;28.20;26.39;101321.08;84594;1331;22596;-77
2022/09/04 10:03:08;;;;;;;6.30;4.20;;;;;;;27.52;27.80;101317.59;84674;1324;22584;-73
2022/09/04 10:14:21;;;;;;;6.90;4.50;;;;;;;26.26;29.22;101313.20;84589;1334;23985;-73
2022/09/04 10:17:57;;;;;;;6.90;4.00;;;;;;;26.01;29.34;101312.17;84701;1328;22599;-74
2022/09/04 10:33:26;;;;;;;5.40;4.80;;;;;;;25.57;29.90;101301.54;84646;1331;22739;-72
2022/09/04 10:43:28;;;;;;;7.90;4.80;;;;;;;25.62;29.76;101308.23;84380;1334;22728;-74
2022/09/04 10:51:49;;;;;;;6.10;5.20;;;;;;;25.78;28.02;101311.90;77600;1340;960359;-68
2022/09/04 11:03:27;;;;;;;5.70;4.30;;;;;;;25.55;28.22;101316.02;83697;1344;24419;-71
2022/09/04 11:14:19;;;;;;;7.60;5.00;;;;;;;25.60;27.44;101302.52;83659;1343;22678;-68
2022/09/04 11:21:53;;;;;;;;;;;;;;;;;;;;;
2022/09/04 11:32:58;;;;;;;5.20;3.90;;;;;;;24.35;32.17;101313.48;83706;1345;22819;-67
2022/09/04 11:44:18;;;;;;;7.50;5.10;;;;;;;23.49;33.41;101315.34;83702;1343;22630;-69
2022/09/04 11:52:00;;;;;;;5.10;4.60;;;;;;;23.16;34.45;101304.99;81849;1372;546219;-70
2022/09/04 12:03:04;;;;;;;15.00;7.40;;;;;;;22.75;35.07;101300.83;81843;1365;544921;-68
2022/09/04 12:06:28;;;;;;;13.80;6.80;;;;;;;22.54;34.90;101303.97;84577;1333;22608;-70
2022/09/04 12:10:29;;;;;;;;;;;;;;;;;;;;;
2022/09/04 12:17:14;;;;;;;11.20;7.70;;;;;;;22.35;35.21;101296.96;80234;1331;5636532;-71
2022/09/04 12:24:59;;;;;;;5.80;4.80;;;;;;;22.41;34.35;101292.09;84258;1335;25442;-70
2022/09/04 12:28:38;;;;;;;7.20;4.40;;;;;;;22.47;34.90;101296.85;84059;1338;24016;-71
2022/09/04 12:35:54;;;;;;;5.30;3.90;;;;;;;22.39;34.45;101293.97;84560;1332;23921;-71
2022/09/04 12:43:07;;;;;;;5.60;3.60;;;;;;;22.45;35.36;101289.88;84590;1331;22702;-68
2022/09/04 12:46:13;;;;;;;6.50;4.10;;;;;;;22.51;34.89;101291.20;84650;1326;22864;-68
2022/09/04 12:49:11;;;;;;;5.40;4.00;;;;;;;22.65;34.89;101289.41;84592;1332;25307;-70
2022/09/04 12:52:35;;;;;;;7.50;4.50;;;;;;;22.77;34.23;101282.17;84700;1328;25268;-69
2022/09/04 12:59:13;;;;;;;6.50;4.30;;;;;;;22.69;34.24;101284.85;84682;1328;22589;-69
2022/09/04 13:02:24;;;;;;;5.50;3.90;;;;;;;22.61;34.36;101286.34;84608;1331;23089;-71
2022/09/04 13:06:04;;;;;;;;;;;;;;;;;;;;;
2022/09/04 13:14:16;;;;;;;5.60;4.20;;;;;;;22.32;34.15;101288.67;82610;1336;946794;-69
2022/09/04 13:17:09;;;;;;;4.40;3.90;;;;;;;22.30;33.91;101292.02;83890;1344;22613;-70
2022/09/04 13:23:58;;;;;;;7.60;4.30;;;;;;;22.35;34.13;101298.39;83793;1344;22593;-69
2022/09/04 13:30:33;;;;;;;5.00;4.20;;;;;;;22.32;34.30;101289.20;84026;1340;22636;-69
2022/09/04 13:33:41;;;;;;;5.20;4.10;;;;;;;22.39;34.18;101291.91;83876;1340;22690;-68
2022/09/04 13:36:47;;;;;;;4.70;3.70;;;;;;;22.39;33.92;101293.23;84264;1337;22662;-68
2022/09/04 13:50:59;;;;;;;5.00;3.40;;;;;;;22.41;33.88;101301.86;83697;1336;25940;-72
2022/09/04 13:57:26;;;;;;;8.70;3.50;;;;;;;22.49;34.04;101306.77;83746;1339;22607;-69
2022/09/04 14:04:22;;;;;;;4.50;3.60;;;;;;;22.39;34.15;101305.39;84277;1334;24285;-68
2022/09/04 14:15:10;;;;;;;4.20;3.50;;;;;;;22.13;34.77;101304.43;84308;1337;24458;-72
2022/09/04 14:18:13;;;;;;;6.50;3.60;;;;;;;22.01;34.84;101298.70;84289;1336;22626;-72
2022/09/04 14:25:24;;;;;;;5.10;2.80;;;;;;;21.73;35.12;101294.48;84479;1326;22594;-73
2022/09/04 14:28:19;;;;;;;7.00;2.80;;;;;;;21.65;35.26;101292.89;84168;1339;22628;-72
2022/09/04 14:31:11;;;;;;;4.80;3.40;;;;;;;21.60;35.64;101297.66;84169;1339;22649;-70